createdAt,value
2019-05-25T00:00:55.927Z,101205.84
2019-05-25T00:03:27.191Z,101206.86
2019-05-25T00:05:55.605Z,101213.72
2019-05-25T00:08:24.067Z,101212.91
2019-05-25T00:10:52.784Z,101214.89
2019-05-25T00:13:21.225Z,101213.88
2019-05-25T00:15:49.657Z,101223.95
2019-05-25T00:18:18.293Z,101220.25
2019-05-25T00:20:46.718Z,101224.27
2019-05-25T00:23:15.146Z,101226.15
2019-05-25T00:25:43.608Z,101229.41
2019-05-25T00:28:12.235Z,101232.46
2019-05-25T00:30:40.748Z,101230.10
2019-05-25T00:33:09.495Z,101228.77
2019-05-25T00:35:37.890Z,101238.45
2019-05-25T00:38:06.354Z,101234.49
2019-05-25T00:40:35.113Z,101228.49
2019-05-25T00:43:03.552Z,101227.85
2019-05-25T00:45:31.988Z,101228.55
2019-05-25T00:48:00.432Z,101229.88
2019-05-25T00:50:29.181Z,101228.05
2019-05-25T00:52:57.621Z,101226.19
2019-05-25T00:55:26.165Z,101227.94
2019-05-25T00:57:54.601Z,101225.62
2019-05-25T01:00:23.352Z,101233.83
2019-05-25T01:02:52.171Z,101230.39
2019-05-25T01:05:20.718Z,101233.76
2019-05-25T01:07:49.152Z,101235.47
2019-05-25T01:10:18.118Z,101234.17
2019-05-25T01:12:46.548Z,101240.22
2019-05-25T01:15:15.845Z,101233.73
2019-05-25T01:17:44.959Z,101236.41
2019-05-25T01:20:15.245Z,101233.20
2019-05-25T01:22:43.676Z,101239.73
2019-05-25T01:25:13.739Z,101237.05
2019-05-25T01:27:42.174Z,101235.39
2019-05-25T01:30:12.090Z,101232.19
2019-05-25T01:32:40.784Z,101236.16
2019-05-25T01:35:09.546Z,101235.47
2019-05-25T01:37:38.332Z,101233.44
2019-05-25T01:40:07.523Z,101230.76
2019-05-25T01:42:35.962Z,101237.94
2019-05-25T01:45:05.926Z,101233.61
2019-05-25T01:47:34.754Z,101238.47
2019-05-25T01:50:03.354Z,101233.44
2019-05-25T01:52:32.072Z,101236.76
2019-05-25T01:55:00.805Z,101237.08
2019-05-25T01:57:29.230Z,101236.76
2019-05-25T01:59:57.653Z,101238.47
2019-05-25T02:02:26.102Z,101234.63
2019-05-25T02:04:54.525Z,101235.84
2019-05-25T02:07:23.112Z,101237.87
2019-05-25T02:09:51.896Z,101231.17
2019-05-25T02:12:20.450Z,101230.16
2019-05-25T02:14:48.931Z,101234.82
2019-05-25T02:17:17.654Z,101230.48
2019-05-25T02:19:46.089Z,101234.87
2019-05-25T02:22:14.511Z,101234.87
2019-05-25T02:24:42.952Z,101235.06
2019-05-25T02:27:11.461Z,101236.58
2019-05-25T02:29:39.902Z,101232.56
2019-05-25T02:32:08.607Z,101234.27
2019-05-25T02:34:37.039Z,101237.14
2019-05-25T02:37:05.470Z,101235.28
2019-05-25T02:39:33.990Z,101233.63
2019-05-25T02:42:02.639Z,101236.13
2019-05-25T02:44:31.089Z,101235.61
2019-05-25T02:46:59.523Z,101236.30
2019-05-25T02:49:28.113Z,101237.64
2019-05-25T02:51:56.827Z,101236.30
2019-05-25T02:54:25.256Z,101246.83
2019-05-25T02:56:53.679Z,101237.79
2019-05-25T02:59:22.274Z,101237.59
2019-05-25T03:01:50.770Z,101245.12
2019-05-25T03:04:19.200Z,101245.94
2019-05-25T03:06:47.832Z,101249.14
2019-05-25T03:09:18.136Z,101245.62
2019-05-25T03:11:46.780Z,101244.97
2019-05-25T03:14:16.556Z,101245.98
2019-05-25T03:16:44.998Z,101242.50
2019-05-25T03:19:13.436Z,101247.52
2019-05-25T03:21:42.090Z,101245.34
2019-05-25T03:24:10.514Z,101248.66
2019-05-25T03:26:38.950Z,101250.00
2019-05-25T03:29:07.527Z,101251.02
2019-05-25T03:31:35.950Z,101254.22
2019-05-25T03:34:04.499Z,101250.05
2019-05-25T03:36:33.010Z,101255.72
2019-05-25T03:39:01.811Z,101258.72
2019-05-25T03:41:30.226Z,101256.05
2019-05-25T03:44:00.326Z,101254.91
2019-05-25T03:46:28.767Z,101253.56
2019-05-25T03:48:57.261Z,101261.07
2019-05-25T03:51:25.918Z,101260.75
2019-05-25T03:53:54.340Z,101266.09
2019-05-25T03:56:22.771Z,101261.80
2019-05-25T03:58:51.259Z,101268.77
2019-05-25T04:01:19.701Z,101269.75
2019-05-25T04:03:48.457Z,101265.73
2019-05-25T04:06:16.913Z,101269.42
2019-05-25T04:08:45.339Z,101270.77
2019-05-25T04:11:13.758Z,101273.11
2019-05-25T04:13:42.561Z,101271.28
2019-05-25T04:16:11.700Z,101277.28
2019-05-25T04:18:40.134Z,101280.41
2019-05-25T04:21:08.916Z,101278.38
2019-05-25T04:23:37.355Z,101274.00
2019-05-25T04:26:19.584Z,101273.30
2019-05-25T04:28:35.949Z,101271.64
2019-05-25T04:31:04.380Z,101274.00
2019-05-25T04:33:32.813Z,101280.64
2019-05-25T04:36:01.268Z,101286.97
2019-05-25T04:38:29.699Z,101287.94
2019-05-25T04:40:58.126Z,101288.43
2019-05-25T04:43:26.590Z,101291.95
2019-05-25T04:45:55.165Z,101298.32
2019-05-25T04:48:23.590Z,101298.81
2019-05-25T04:50:52.150Z,101299.66
2019-05-25T04:53:20.598Z,101305.34
2019-05-25T04:55:49.021Z,101300.31
2019-05-25T04:58:17.587Z,101296.62
2019-05-25T05:00:46.028Z,101302.57
2019-05-25T05:03:14.451Z,101294.78
2019-05-25T05:05:43.224Z,101296.08
2019-05-25T05:08:11.651Z,101300.89
2019-05-25T05:10:40.089Z,101298.66
2019-05-25T05:13:08.669Z,101298.29
2019-05-25T05:15:37.100Z,101293.58
2019-05-25T05:18:05.782Z,101310.94
2019-05-25T05:20:34.313Z,101300.87
2019-05-25T05:23:02.741Z,101302.53
2019-05-25T05:25:31.178Z,101301.31
2019-05-25T05:28:01.281Z,101306.50
2019-05-25T05:30:34.112Z,101310.98
2019-05-25T05:33:02.976Z,101313.94
2019-05-25T05:35:32.996Z,101315.02
2019-05-25T05:38:04.593Z,101318.30
2019-05-25T05:40:33.207Z,101313.52
2019-05-25T05:43:05.028Z,101310.47
2019-05-25T05:45:35.971Z,101308.55
2019-05-25T05:48:05.141Z,101312.31
2019-05-25T05:50:36.940Z,101317.55
2019-05-25T05:53:05.656Z,101312.89
2019-05-25T05:55:34.148Z,101317.32
2019-05-25T05:58:02.686Z,101316.14
2019-05-25T06:00:31.313Z,101319.09
2019-05-25T06:02:59.781Z,101319.55
2019-05-25T06:05:28.673Z,101324.70
2019-05-25T06:07:57.276Z,101322.66
2019-05-25T06:10:25.720Z,101325.28
2019-05-25T06:12:54.345Z,101321.30
2019-05-25T06:15:22.838Z,101323.65
2019-05-25T06:17:51.560Z,101327.86
2019-05-25T06:20:20.915Z,101332.63
2019-05-25T06:22:49.670Z,101332.20
2019-05-25T06:25:18.467Z,101341.02
2019-05-25T06:27:48.265Z,101342.81
2019-05-25T06:30:18.183Z,101344.31
2019-05-25T06:32:46.623Z,101340.09
2019-05-25T06:35:16.420Z,101352.61
2019-05-25T06:37:45.273Z,101353.95
2019-05-25T06:40:15.516Z,101348.20
2019-05-25T06:42:44.701Z,101351.15
2019-05-25T06:45:14.460Z,101357.09
2019-05-25T06:47:42.891Z,101356.39
2019-05-25T06:50:11.977Z,101354.14
2019-05-25T06:52:40.423Z,101358.73
2019-05-25T06:55:09.488Z,101362.87
2019-05-25T06:57:43.342Z,101357.19
2019-05-25T07:00:10.302Z,101355.20
2019-05-25T07:02:39.098Z,101362.23
2019-05-25T07:05:08.229Z,101360.25
2019-05-25T07:07:36.675Z,101357.63
2019-05-25T07:10:07.755Z,101357.20
2019-05-25T07:12:36.541Z,101362.77
2019-05-25T07:15:08.710Z,101361.50
2019-05-25T07:17:38.105Z,101359.63
2019-05-25T07:20:10.166Z,101356.07
2019-05-25T07:22:38.823Z,101361.98
2019-05-25T07:25:07.879Z,101364.53
2019-05-25T07:27:36.486Z,101373.86
2019-05-25T07:30:09.073Z,101367.09
2019-05-25T07:32:37.691Z,101364.66
2019-05-25T07:35:07.445Z,101373.00
2019-05-25T07:37:35.869Z,101366.02
2019-05-25T07:40:06.525Z,101365.73
2019-05-25T07:42:35.329Z,101374.81
2019-05-25T07:45:05.717Z,101377.14
2019-05-25T07:47:34.299Z,101375.95
2019-05-25T07:50:03.284Z,101377.70
2019-05-25T07:52:31.796Z,101374.86
2019-05-25T07:55:00.375Z,101371.28
2019-05-25T07:57:29.291Z,101374.58
2019-05-25T07:59:57.716Z,101372.14
2019-05-25T08:02:26.148Z,101376.30
2019-05-25T08:04:55.078Z,101382.16
2019-05-25T08:07:23.502Z,101375.58
2019-05-25T08:09:52.180Z,101377.16
2019-05-25T08:12:20.745Z,101381.30
2019-05-25T08:14:49.166Z,101379.90
2019-05-25T08:17:17.604Z,101397.27
2019-05-25T08:19:46.241Z,101391.48
2019-05-25T08:22:14.674Z,101398.06
2019-05-25T08:24:43.116Z,101395.85
2019-05-25T08:27:11.645Z,101401.03
2019-05-25T08:29:40.074Z,101393.65
2019-05-25T08:32:08.683Z,101403.69
2019-05-25T08:34:37.538Z,101408.58
2019-05-25T08:37:05.961Z,101410.21
2019-05-25T08:39:34.446Z,101408.38
2019-05-25T08:42:03.184Z,101413.25
2019-05-25T08:44:31.598Z,101408.25
2019-05-25T08:47:00.020Z,101409.94
2019-05-25T08:49:28.526Z,101413.89
2019-05-25T08:51:56.901Z,101418.16
2019-05-25T08:54:25.370Z,101419.70
2019-05-25T08:56:54.289Z,101421.60
2019-05-25T08:59:22.736Z,101419.05
2019-05-25T09:01:51.196Z,101430.12
2019-05-25T09:04:19.928Z,101426.34
2019-05-25T09:06:48.370Z,101427.52
2019-05-25T09:09:16.801Z,101429.35
2019-05-25T09:11:45.381Z,101431.72
2019-05-25T09:14:13.836Z,101433.39
2019-05-25T09:16:42.327Z,101435.05
2019-05-25T09:19:11.001Z,101438.23
2019-05-25T09:21:39.478Z,101430.55
2019-05-25T09:24:07.953Z,101437.30
2019-05-25T09:26:36.432Z,101442.11
2019-05-25T09:29:06.036Z,101438.39
2019-05-25T09:31:34.621Z,101448.94
2019-05-25T09:34:03.087Z,101450.19
2019-05-25T09:36:31.564Z,101451.62
2019-05-25T09:38:59.985Z,101454.30
2019-05-25T09:41:28.584Z,101453.77
2019-05-25T09:43:57.143Z,101450.68
2019-05-25T09:46:25.626Z,101448.03
2019-05-25T09:48:54.186Z,101442.34
2019-05-25T09:51:22.694Z,101458.95
2019-05-25T09:53:51.284Z,101454.19
2019-05-25T09:56:19.765Z,101447.59
2019-05-25T09:58:48.276Z,101448.14
2019-05-25T10:01:17.904Z,101442.05
2019-05-25T10:03:47.104Z,101441.29
2019-05-25T10:06:15.903Z,101443.37
2019-05-25T10:08:44.736Z,101443.27
2019-05-25T10:11:13.483Z,101447.72
2019-05-25T10:13:42.042Z,101451.12
2019-05-25T10:16:10.471Z,101450.78
2019-05-25T10:18:39.153Z,101459.58
2019-05-25T10:21:07.582Z,101458.91
2019-05-25T10:23:36.005Z,101450.19
2019-05-25T10:26:04.717Z,101452.41
2019-05-25T10:28:33.454Z,101450.13
2019-05-25T10:31:01.884Z,101456.68
2019-05-25T10:33:30.354Z,101457.85
2019-05-25T10:35:58.786Z,101459.53
2019-05-25T10:38:27.372Z,101458.55
2019-05-25T10:40:58.505Z,101442.83
2019-05-25T10:43:26.075Z,101442.47
2019-05-25T10:45:54.501Z,101445.76
2019-05-25T10:48:23.578Z,101441.83
2019-05-25T10:50:51.984Z,101448.46
2019-05-25T10:53:20.407Z,101453.73
2019-05-25T10:55:49.014Z,101452.08
2019-05-25T10:58:17.448Z,101455.30
2019-05-25T11:00:45.880Z,101452.20
2019-05-25T11:03:14.628Z,101449.67
2019-05-25T11:05:43.120Z,101448.62
2019-05-25T11:08:11.578Z,101454.51
2019-05-25T11:10:40.273Z,101450.69
2019-05-25T11:13:08.716Z,101456.48
2019-05-25T11:15:37.387Z,101455.47
2019-05-25T11:18:06.147Z,101449.69
2019-05-25T11:20:34.551Z,101448.25
2019-05-25T11:23:03.056Z,101450.39
2019-05-25T11:25:31.777Z,101446.95
2019-05-25T11:28:00.215Z,101446.71
2019-05-25T11:30:28.655Z,101451.01
2019-05-25T11:32:57.396Z,101450.55
2019-05-25T11:35:25.954Z,101453.20
2019-05-25T11:37:54.566Z,101460.28
2019-05-25T11:40:23.365Z,101450.17
2019-05-25T11:42:51.984Z,101447.35
2019-05-25T11:45:21.141Z,101448.14
2019-05-25T11:47:52.109Z,101444.84
2019-05-25T11:50:21.627Z,101456.61
2019-05-25T11:52:50.121Z,101456.38
2019-05-25T11:55:18.596Z,101465.15
2019-05-25T11:57:47.013Z,101458.11
2019-05-25T12:00:25.120Z,101453.67
2019-05-25T12:02:48.228Z,101451.08
2019-05-25T12:05:16.768Z,101451.05
2019-05-25T12:07:45.289Z,101446.00
2019-05-25T12:10:14.920Z,101447.30
2019-05-25T12:12:43.338Z,101450.81
2019-05-25T12:15:13.323Z,101445.53
2019-05-25T12:17:41.986Z,101446.66
2019-05-25T12:20:10.956Z,101451.59
2019-05-25T12:22:39.385Z,101445.17
2019-05-25T12:25:08.681Z,101450.36
2019-05-25T12:27:37.106Z,101445.50
2019-05-25T12:30:09.366Z,101446.13
2019-05-25T12:32:38.444Z,101438.89
2019-05-25T12:35:07.802Z,101440.17
2019-05-25T12:37:36.251Z,101446.26
2019-05-25T12:40:06.956Z,101444.52
2019-05-25T12:42:35.447Z,101440.50
2019-05-25T12:45:04.835Z,101450.73
2019-05-25T12:47:33.290Z,101453.48
2019-05-25T12:50:01.747Z,101457.33
2019-05-25T12:52:30.482Z,101452.50
2019-05-25T12:54:59.170Z,101457.70
2019-05-25T12:57:27.601Z,101450.45
2019-05-25T12:59:56.026Z,101453.34
2019-05-25T13:02:24.547Z,101457.89
2019-05-25T13:04:53.157Z,101451.66
2019-05-25T13:07:21.659Z,101449.27
2019-05-25T13:09:50.125Z,101459.44
2019-05-25T13:12:18.824Z,101460.09
2019-05-25T13:14:47.831Z,101457.08
2019-05-25T13:17:16.391Z,101461.43
2019-05-25T13:19:44.827Z,101478.02
2019-05-25T13:22:13.297Z,101474.25
2019-05-25T13:24:41.791Z,101476.13
2019-05-25T13:27:10.342Z,101485.17
2019-05-25T13:29:38.768Z,101478.90
2019-05-25T13:32:07.315Z,101488.23
2019-05-25T13:34:35.749Z,101489.30
2019-05-25T13:37:04.641Z,101496.75
2019-05-25T13:39:33.550Z,101494.46
2019-05-25T13:42:02.000Z,101495.28
2019-05-25T13:44:30.453Z,101496.81
2019-05-25T13:46:58.942Z,101498.82
2019-05-25T13:49:27.425Z,101491.27
2019-05-25T13:51:55.897Z,101491.26
2019-05-25T13:54:24.563Z,101489.27
2019-05-25T13:56:53.007Z,101493.73
2019-05-25T13:59:21.752Z,101488.10
2019-05-25T14:01:50.401Z,101488.30
2019-05-25T14:04:18.914Z,101495.70
2019-05-25T14:06:47.427Z,101499.23
2019-05-25T14:09:16.128Z,101504.84
2019-05-25T14:11:44.595Z,101502.36
2019-05-25T14:14:13.026Z,101510.69
2019-05-25T14:16:41.579Z,101501.53
2019-05-25T14:19:10.219Z,101499.91
2019-05-25T14:21:38.666Z,101503.92
2019-05-25T14:24:07.268Z,101499.42
2019-05-25T14:26:35.670Z,101503.70
2019-05-25T14:29:04.256Z,101500.48
2019-05-25T14:31:44.934Z,101491.08
2019-05-25T14:34:02.969Z,101498.93
2019-05-25T14:36:31.646Z,101500.59
2019-05-25T14:39:00.096Z,101496.14
2019-05-25T14:41:28.520Z,101492.50
2019-05-25T14:43:57.012Z,101488.15
2019-05-25T14:46:28.215Z,101494.48
2019-05-25T14:48:55.963Z,101498.72
2019-05-25T14:51:24.717Z,101495.63
2019-05-25T14:53:53.355Z,101502.44
2019-05-25T14:56:21.784Z,101496.72
2019-05-25T14:58:50.714Z,101492.84
2019-05-25T15:01:19.437Z,101496.77
2019-05-25T15:03:47.866Z,101496.50
2019-05-25T15:06:20.691Z,101496.08
2019-05-25T15:08:46.546Z,101487.34
2019-05-25T15:11:15.070Z,101495.80
2019-05-25T15:13:43.495Z,101494.53
2019-05-25T15:16:12.121Z,101495.31
2019-05-25T15:18:40.553Z,101494.29
2019-05-25T15:21:09.301Z,101492.55
2019-05-25T15:23:37.989Z,101485.63
2019-05-25T15:26:06.418Z,101488.52
2019-05-25T15:28:34.886Z,101495.06
2019-05-25T15:31:03.504Z,101491.50
2019-05-25T15:33:31.982Z,101494.39
2019-05-25T15:36:00.407Z,101496.66
2019-05-25T15:38:28.868Z,101491.28
2019-05-25T15:40:57.287Z,101490.86
2019-05-25T15:43:25.731Z,101486.05
2019-05-25T15:45:54.411Z,101484.17
2019-05-25T15:48:26.124Z,101482.42
2019-05-25T15:50:52.990Z,101479.69
2019-05-25T15:53:21.702Z,101475.69
2019-05-25T15:55:50.166Z,101472.52
2019-05-25T15:58:18.808Z,101469.81
2019-05-25T16:00:51.890Z,101472.67
2019-05-25T16:03:20.904Z,101474.55
2019-05-25T16:05:49.879Z,101485.15
2019-05-25T16:08:20.356Z,101479.78
2019-05-25T16:10:48.799Z,101478.75
2019-05-25T16:13:17.483Z,101485.56
2019-05-25T16:15:46.030Z,101487.71
2019-05-25T16:18:14.441Z,101484.69
2019-05-25T16:20:42.884Z,101486.61
2019-05-25T16:23:11.722Z,101482.81
2019-05-25T16:25:40.178Z,101490.72
2019-05-25T16:28:08.593Z,101484.62
2019-05-25T16:30:37.543Z,101488.44
2019-05-25T16:33:14.640Z,101493.09
2019-05-25T16:35:36.491Z,101485.72
2019-05-25T16:38:05.319Z,101493.53
2019-05-25T16:40:33.881Z,101492.78
2019-05-25T16:43:02.380Z,101488.38
2019-05-25T16:45:31.293Z,101482.30
2019-05-25T16:47:59.780Z,101486.61
2019-05-25T16:50:28.206Z,101472.61
2019-05-25T16:52:56.942Z,101482.09
2019-05-25T16:55:25.360Z,101481.14
2019-05-25T16:57:53.998Z,101484.95
2019-05-25T17:00:31.409Z,101478.63
2019-05-25T17:03:00.395Z,101478.30
2019-05-25T17:05:29.349Z,101476.26
2019-05-25T17:07:58.294Z,101471.91
2019-05-25T17:10:27.186Z,101467.63
2019-05-25T17:12:55.634Z,101472.05
2019-05-25T17:15:24.352Z,101471.73
2019-05-25T17:17:52.773Z,101470.70
2019-05-25T17:20:21.784Z,101466.60
2019-05-25T17:22:50.390Z,101462.50
2019-05-25T17:25:19.194Z,101467.91
2019-05-25T17:27:47.913Z,101463.20
2019-05-25T17:30:17.181Z,101461.80
2019-05-25T17:32:45.709Z,101465.89
2019-05-25T17:35:14.630Z,101470.63
2019-05-25T17:37:43.648Z,101463.35
2019-05-25T17:40:13.477Z,101464.16
2019-05-25T17:42:41.922Z,101464.30
2019-05-25T17:45:10.708Z,101463.42
2019-05-25T17:47:39.140Z,101462.53
2019-05-25T17:50:08.495Z,101461.03
2019-05-25T17:52:36.939Z,101465.94
2019-05-25T17:55:09.179Z,101463.78
2019-05-25T17:57:37.660Z,101457.07
2019-05-25T18:00:09.118Z,101464.17
2019-05-25T18:02:37.606Z,101467.30
2019-05-25T18:05:08.072Z,101456.95
2019-05-25T18:07:36.552Z,101469.73
2019-05-25T18:10:08.715Z,101469.47
2019-05-25T18:12:37.242Z,101470.27
2019-05-25T18:15:10.342Z,101469.66
2019-05-25T18:17:38.989Z,101474.44
2019-05-25T18:20:10.274Z,101473.48
2019-05-25T18:22:38.761Z,101478.52
2019-05-25T18:25:07.657Z,101477.18
2019-05-25T18:27:37.828Z,101481.84
2019-05-25T18:30:08.273Z,101484.42
2019-05-25T18:32:36.823Z,101484.64
2019-05-25T18:35:07.263Z,101485.39
2019-05-25T18:37:36.137Z,101482.97
2019-05-25T18:40:07.434Z,101475.51
2019-05-25T18:42:35.869Z,101480.60
2019-05-25T18:45:08.725Z,101470.63
2019-05-25T18:47:37.351Z,101471.37
2019-05-25T18:50:08.318Z,101474.51
2019-05-25T18:52:37.115Z,101469.89
2019-05-25T18:55:08.192Z,101472.94
2019-05-25T18:57:37.082Z,101466.29
2019-05-25T19:00:07.685Z,101468.00
2019-05-25T19:02:36.122Z,101473.04
2019-05-25T19:05:06.310Z,101477.11
2019-05-25T19:07:34.840Z,101475.49
2019-05-25T19:10:05.408Z,101479.88
2019-05-25T19:12:33.948Z,101481.30
2019-05-25T19:15:02.428Z,101481.66
2019-05-25T19:17:30.916Z,101490.72
2019-05-25T19:19:59.654Z,101491.09
2019-05-25T19:22:28.071Z,101484.06
2019-05-25T19:24:56.491Z,101493.12
2019-05-25T19:27:24.932Z,101491.45
2019-05-25T19:29:53.396Z,101496.48
2019-05-25T19:32:21.839Z,101489.14
2019-05-25T19:34:59.838Z,101493.16
2019-05-25T19:37:20.558Z,101495.52
2019-05-25T19:39:48.988Z,101490.97
2019-05-25T19:42:17.576Z,101495.84
2019-05-25T19:44:46.019Z,101497.18
2019-05-25T19:47:14.443Z,101488.81
2019-05-25T19:49:42.955Z,101490.36
2019-05-25T19:52:11.612Z,101481.51
2019-05-25T19:54:40.134Z,101484.55
2019-05-25T19:57:08.774Z,101482.56
2019-05-25T19:59:37.220Z,101492.27
2019-05-25T20:02:05.682Z,101485.89
2019-05-25T20:04:34.228Z,101488.58
2019-05-25T20:07:02.653Z,101487.27
2019-05-25T20:09:31.092Z,101498.19
2019-05-25T20:11:59.661Z,101490.97
2019-05-25T20:14:28.088Z,101491.29
2019-05-25T20:16:56.606Z,101491.13
2019-05-25T20:19:25.320Z,101487.92
2019-05-25T20:21:53.968Z,101485.89
2019-05-25T20:24:22.391Z,101478.38
2019-05-25T20:26:50.917Z,101479.89
2019-05-25T20:29:19.348Z,101487.96
2019-05-25T20:31:47.790Z,101483.30
2019-05-25T20:34:16.335Z,101480.94
2019-05-25T20:36:44.752Z,101475.26
2019-05-25T20:39:13.176Z,101477.28
2019-05-25T20:41:42.058Z,101481.14
2019-05-25T20:44:10.491Z,101476.71
2019-05-25T20:46:38.916Z,101484.13
2019-05-25T20:49:07.500Z,101476.50
2019-05-25T20:51:35.959Z,101471.24
2019-05-25T20:54:04.637Z,101470.30
2019-05-25T20:56:33.089Z,101472.03
2019-05-25T20:59:01.932Z,101471.41
2019-05-25T21:01:31.095Z,101467.78
2019-05-25T21:03:59.535Z,101466.17
2019-05-25T21:06:27.975Z,101469.20
2019-05-25T21:08:56.412Z,101464.21
2019-05-25T21:11:24.897Z,101461.89
2019-05-25T21:13:53.422Z,101463.25
2019-05-25T21:16:21.866Z,101463.94
2019-05-25T21:18:50.408Z,101464.63
2019-05-25T21:21:18.818Z,101466.64
2019-05-25T21:23:47.271Z,101463.66
2019-05-25T21:26:15.835Z,101460.69
2019-05-25T21:28:44.250Z,101463.42
2019-05-25T21:31:12.830Z,101460.44
2019-05-25T21:33:41.331Z,101451.78
2019-05-25T21:36:09.761Z,101453.14
2019-05-25T21:38:38.299Z,101447.48
2019-05-25T21:41:06.726Z,101452.38
2019-05-25T21:43:35.140Z,101442.19
2019-05-25T21:46:03.594Z,101447.91
2019-05-25T21:48:32.321Z,101457.29
2019-05-25T21:51:00.739Z,101456.63
2019-05-25T21:53:29.352Z,101455.94
2019-05-25T21:55:57.816Z,101457.10
2019-05-25T21:58:26.231Z,101455.62
2019-05-25T22:00:54.768Z,101452.30
2019-05-25T22:03:23.194Z,101447.63
2019-05-25T22:05:51.740Z,101447.16
2019-05-25T22:08:20.239Z,101440.63
2019-05-25T22:10:48.659Z,101435.64
2019-05-25T22:13:27.843Z,101431.97
2019-05-25T22:15:47.609Z,101431.83
2019-05-25T22:18:16.066Z,101434.36
2019-05-25T22:20:44.495Z,101431.52
2019-05-25T22:23:16.356Z,101435.72
2019-05-25T22:25:44.792Z,101431.05
2019-05-25T22:28:13.265Z,101439.41
2019-05-25T22:30:41.716Z,101432.88
2019-05-25T22:33:10.151Z,101431.73
2019-05-25T22:35:38.920Z,101427.59
2019-05-25T22:38:07.446Z,101425.08
2019-05-25T22:40:35.904Z,101421.59
2019-05-25T22:43:04.401Z,101420.73
2019-05-25T22:45:32.932Z,101412.58
2019-05-25T22:48:01.407Z,101408.73
2019-05-25T22:50:29.820Z,101398.72
2019-05-25T22:52:58.507Z,101399.73
2019-05-25T22:55:27.206Z,101401.58
2019-05-25T22:57:55.629Z,101397.73
2019-05-25T23:00:24.248Z,101394.24
2019-05-25T23:02:52.680Z,101396.39
2019-05-25T23:05:21.122Z,101391.73
2019-05-25T23:07:49.923Z,101401.08
2019-05-25T23:10:19.033Z,101393.77
2019-05-25T23:12:47.474Z,101400.75
2019-05-25T23:15:16.472Z,101396.73
2019-05-25T23:17:44.913Z,101393.44
2019-05-25T23:20:13.731Z,101394.78
2019-05-25T23:22:42.290Z,101386.11
2019-05-25T23:25:11.040Z,101385.77
2019-05-25T23:27:39.639Z,101380.44
2019-05-25T23:30:09.168Z,101380.45
2019-05-25T23:32:37.617Z,101382.78
2019-05-25T23:35:06.608Z,101371.78
2019-05-25T23:37:35.070Z,101378.12
2019-05-25T23:40:07.434Z,101370.27
2019-05-25T23:42:36.004Z,101369.45
2019-05-25T23:45:06.278Z,101367.59
2019-05-25T23:47:35.013Z,101361.44
2019-05-25T23:50:05.449Z,101355.77
2019-05-25T23:52:33.923Z,101353.10
2019-05-25T23:55:05.246Z,101346.42
2019-05-25T23:57:32.992Z,101346.42
